Bonair, Iowa
Current Conditions -  °F | °C
As of 2:55 PM on Saturday 25 Oct 2014 (Local Time) from KFKA Reporting Station
Clear Clear  
Wind Chill: 61°   Ceiling: Unl
Heat Index: 61°   Visibility: 10mi
Dew Point: 30°   Wind: 17mph
Humidity: 31%   Direction: 300°WNW
Pressure: 30.04"   Gusts: 24mph
Location:  43.4648°N, 92.2573°W
Report Text: KFKA 251955Z AUTO 30015G21KT 10SM CLR 16/M01 A3004 RMK AO2 T01631009
Loading
Personal Weather Stations






























Interactive Weather Map
Tropical Storm Tracking
New forecast layout! Learn more

10-Day Weather Forecast

Advertisements
Track Severe Weather on mobile